createdAt,value
2023-01-12T00:01:56.082Z,14.70
2023-01-12T00:04:20.923Z,14.07
2023-01-12T00:06:45.797Z,14.88
2023-01-12T00:09:11.588Z,14.45
2023-01-12T00:11:40.778Z,14.65
2023-01-12T00:14:05.709Z,15.60
2023-01-12T00:16:37.930Z,15.38
2023-01-12T00:19:02.899Z,14.75
2023-01-12T00:21:28.329Z,14.85
2023-01-12T00:23:52.989Z,16.95
2023-01-12T00:26:18.324Z,13.65
2023-01-12T00:28:45.580Z,14.65
2023-01-12T00:31:12.586Z,14.45
2023-01-12T00:33:37.752Z,15.38
2023-01-12T00:36:04.348Z,15.32
2023-01-12T00:38:28.975Z,15.50
2023-01-12T00:40:53.525Z,16.95
2023-01-12T00:43:35.462Z,16.25
2023-01-12T00:46:01.421Z,14.13
2023-01-12T00:48:26.792Z,15.60
2023-01-12T00:50:51.469Z,15.10
2023-01-12T00:53:15.933Z,17.73
2023-01-12T00:55:40.383Z,16.95
2023-01-12T00:58:04.803Z,11.90
2023-01-12T01:00:29.541Z,16.98
2023-01-12T01:02:55.687Z,15.50
2023-01-12T01:05:20.289Z,15.10
2023-01-12T01:07:46.940Z,16.30
2023-01-12T01:10:12.769Z,15.95
2023-01-12T01:12:37.781Z,16.15
2023-01-12T01:15:02.348Z,16.30
2023-01-12T01:17:28.881Z,14.10
2023-01-12T01:19:55.287Z,16.40
2023-01-12T01:22:19.815Z,16.77
2023-01-12T01:24:44.460Z,15.52
2023-01-12T01:27:09.463Z,15.32
2023-01-12T01:29:33.986Z,16.13
2023-01-12T01:32:00.986Z,14.05
2023-01-12T01:34:25.664Z,15.35
2023-01-12T01:36:51.522Z,15.00
2023-01-12T01:39:16.009Z,16.33
2023-01-12T01:41:43.425Z,14.80
2023-01-12T01:45:01.214Z,15.63
2023-01-12T01:47:34.729Z,14.43
2023-01-12T01:50:02.299Z,17.23
2023-01-12T01:52:33.416Z,15.30
2023-01-12T01:55:01.054Z,15.93
2023-01-12T01:57:30.363Z,15.38
2023-01-12T01:59:57.670Z,11.50
2023-01-12T02:02:23.924Z,16.38
2023-01-12T02:04:50.207Z,15.57
2023-01-12T02:07:14.721Z,13.77
2023-01-12T02:09:39.707Z,17.27
2023-01-12T02:12:23.116Z,13.77
2023-01-12T02:15:08.511Z,15.98
2023-01-12T02:17:45.927Z,14.60
2023-01-12T02:20:48.725Z,14.52
2023-01-12T02:23:52.148Z,13.70
2023-01-12T02:26:49.617Z,11.43
2023-01-12T02:29:42.230Z,13.68
2023-01-12T02:32:14.796Z,10.82
2023-01-12T02:34:47.416Z,13.00
2023-01-12T02:37:17.704Z,10.68
2023-01-12T02:39:50.120Z,13.07
2023-01-12T02:42:40.796Z,12.80
2023-01-12T02:45:16.698Z,13.43
2023-01-12T02:47:47.740Z,9.48
2023-01-12T02:50:16.265Z,12.65
2023-01-12T02:52:44.596Z,13.02
2023-01-12T02:55:11.141Z,12.90
2023-01-12T02:57:38.658Z,14.88
2023-01-12T03:00:04.155Z,12.05
2023-01-12T03:02:30.343Z,12.50
2023-01-12T03:04:56.538Z,13.85
2023-01-12T03:07:48.784Z,11.77
2023-01-12T03:10:38.643Z,12.85
2023-01-12T03:13:07.841Z,11.65
2023-01-12T03:15:32.528Z,10.98
2023-01-12T03:18:01.180Z,12.82
2023-01-12T03:20:30.130Z,10.65
2023-01-12T03:22:59.792Z,12.05
2023-01-12T03:25:27.697Z,12.38
2023-01-12T03:27:55.488Z,13.02
2023-01-12T03:30:23.981Z,9.13
2023-01-12T03:32:49.184Z,9.10
2023-01-12T03:35:14.340Z,14.30
2023-01-12T03:37:46.300Z,13.55
2023-01-12T03:40:14.530Z,13.10
2023-01-12T03:42:43.951Z,18.05
2023-01-12T03:45:17.176Z,22.25
2023-01-12T03:47:44.817Z,18.15
2023-01-12T03:50:14.867Z,11.65
2023-01-12T03:55:09.863Z,9.32
2023-01-12T03:57:35.072Z,12.80
2023-01-12T04:00:02.085Z,14.50
2023-01-12T04:02:37.155Z,12.80
2023-01-12T04:05:01.840Z,11.30
2023-01-12T04:07:27.826Z,14.82
2023-01-12T04:09:53.866Z,16.02
2023-01-12T04:12:18.490Z,15.52
2023-01-12T04:14:46.893Z,14.75
2023-01-12T04:17:14.654Z,16.05
2023-01-12T04:19:39.178Z,16.35
2023-01-12T04:22:21.219Z,15.18
2023-01-12T04:24:45.685Z,16.13
2023-01-12T04:27:11.773Z,15.75
2023-01-12T04:29:36.406Z,15.55
2023-01-12T04:32:01.269Z,14.95
2023-01-12T04:34:26.508Z,17.58
2023-01-12T04:36:51.055Z,15.13
2023-01-12T04:39:15.543Z,14.63
2023-01-12T04:41:40.379Z,14.77
2023-01-12T04:44:06.433Z,16.48
2023-01-12T04:46:31.019Z,14.07
2023-01-12T04:48:55.650Z,18.80
2023-01-12T04:51:20.093Z,14.20
2023-01-12T04:53:44.562Z,17.02
2023-01-12T04:56:10.029Z,15.02
2023-01-12T04:58:35.045Z,17.17
2023-01-12T05:01:08.770Z,16.05
2023-01-12T05:03:33.793Z,13.85
2023-01-12T05:05:58.291Z,15.80
2023-01-12T05:08:40.544Z,16.50
2023-01-12T05:11:06.021Z,14.18
2023-01-12T05:13:33.214Z,16.20
2023-01-12T05:16:13.204Z,16.35
2023-01-12T05:18:37.807Z,16.02
2023-01-12T05:21:02.482Z,14.55
2023-01-12T05:23:27.594Z,14.38
2023-01-12T05:25:52.145Z,14.73
2023-01-12T05:28:16.887Z,14.63
2023-01-12T05:30:41.718Z,13.73
2023-01-12T05:33:08.064Z,12.68
2023-01-12T05:35:32.893Z,14.73
2023-01-12T05:37:57.517Z,15.25
2023-01-12T05:40:22.208Z,14.93
2023-01-12T05:43:04.796Z,14.23
2023-01-12T05:45:29.305Z,13.50
2023-01-12T05:47:59.193Z,16.40
2023-01-12T05:53:05.022Z,14.13
2023-01-12T05:55:29.824Z,16.30
2023-01-12T05:57:54.661Z,14.77
2023-01-12T06:00:20.388Z,15.20
2023-01-12T06:02:44.898Z,15.02
2023-01-12T06:05:10.925Z,15.02
2023-01-12T06:07:37.329Z,15.25
2023-01-12T06:10:01.921Z,14.30
2023-01-12T06:12:45.202Z,14.20
2023-01-12T06:15:11.093Z,14.50
2023-01-12T06:17:35.650Z,18.15
2023-01-12T06:20:00.767Z,18.55
2023-01-12T06:22:27.534Z,14.07
2023-01-12T06:24:54.581Z,14.70
2023-01-12T06:27:21.896Z,14.98
2023-01-12T06:29:46.394Z,16.35
2023-01-12T06:32:11.109Z,13.90
2023-01-12T06:34:37.007Z,13.88
2023-01-12T06:37:02.800Z,16.75
2023-01-12T06:39:29.668Z,12.65
2023-01-12T06:42:13.645Z,14.68
2023-01-12T06:44:38.180Z,15.45
2023-01-12T06:47:04.462Z,15.15
2023-01-12T06:49:28.905Z,14.57
2023-01-12T06:51:53.586Z,15.77
2023-01-12T06:54:18.866Z,17.58
2023-01-12T06:56:43.433Z,15.68
2023-01-12T06:59:12.497Z,15.40
2023-01-12T07:01:37.244Z,14.43
2023-01-12T07:04:02.000Z,15.23
2023-01-12T07:06:26.820Z,15.20
2023-01-12T07:08:51.274Z,16.50
2023-01-12T07:11:17.019Z,16.38
2023-01-12T07:13:41.511Z,14.43
2023-01-12T07:16:08.854Z,16.40
2023-01-12T07:18:33.503Z,16.13
2023-01-12T07:20:59.146Z,11.70
2023-01-12T07:23:23.761Z,16.55
2023-01-12T07:25:48.165Z,15.27
2023-01-12T07:28:12.712Z,12.80
2023-01-12T07:30:37.457Z,14.45
2023-01-12T07:33:09.761Z,14.98
2023-01-12T07:35:35.307Z,14.63
2023-01-12T07:38:00.026Z,15.52
2023-01-12T07:40:24.511Z,15.68
2023-01-12T07:42:49.364Z,16.63
2023-01-12T07:45:15.239Z,16.17
2023-01-12T07:47:39.994Z,15.95
2023-01-12T07:50:07.262Z,15.32
2023-01-12T07:52:31.815Z,15.35
2023-01-12T07:54:56.864Z,17.80
2023-01-12T07:57:21.384Z,15.95
2023-01-12T07:59:45.820Z,15.55
2023-01-12T08:02:16.527Z,16.75
2023-01-12T08:04:41.047Z,16.17
2023-01-12T08:07:07.081Z,13.60
2023-01-12T08:09:31.419Z,16.40
2023-01-12T08:11:55.832Z,13.18
2023-01-12T08:14:29.295Z,14.70
2023-01-12T08:16:56.958Z,17.08
2023-01-12T08:19:26.234Z,17.45
2023-01-12T08:21:58.085Z,17.45
2023-01-12T08:24:27.363Z,17.92
2023-01-12T08:26:56.022Z,17.63
2023-01-12T08:29:30.119Z,18.45
2023-01-12T08:31:54.912Z,18.95
2023-01-12T08:34:20.044Z,18.55
2023-01-12T08:36:45.247Z,19.35
2023-01-12T08:39:09.971Z,18.25
2023-01-12T08:41:37.922Z,20.38
2023-01-12T08:44:06.350Z,19.35
2023-01-12T08:46:32.912Z,19.23
2023-01-12T08:48:57.479Z,20.13
2023-01-12T08:51:22.495Z,19.45
2023-01-12T08:53:47.462Z,18.50
2023-01-12T08:56:12.458Z,19.23
2023-01-12T08:58:38.722Z,19.40
2023-01-12T09:01:09.432Z,18.88
2023-01-12T09:03:36.483Z,19.55
2023-01-12T09:06:01.679Z,17.83
2023-01-12T09:08:26.600Z,19.55
2023-01-12T09:10:51.345Z,19.75
2023-01-12T09:13:16.546Z,19.02
2023-01-12T09:15:48.189Z,17.95
2023-01-12T09:18:17.242Z,17.85
2023-01-12T09:20:42.588Z,17.85
2023-01-12T09:23:07.455Z,18.50
2023-01-12T09:25:32.798Z,18.63
2023-01-12T09:27:58.270Z,18.05
2023-01-12T09:30:22.827Z,18.55
2023-01-12T09:32:48.811Z,17.75
2023-01-12T09:35:15.586Z,19.20
2023-01-12T09:37:43.233Z,22.58
2023-01-12T09:40:09.519Z,19.95
2023-01-12T09:42:51.310Z,19.67
2023-01-12T09:45:39.044Z,18.58
2023-01-12T09:48:06.755Z,19.10
2023-01-12T09:50:35.844Z,18.73
2023-01-12T09:53:07.157Z,19.10
2023-01-12T09:55:49.350Z,23.33
2023-01-12T09:58:30.401Z,25.48
2023-01-12T10:00:58.437Z,24.35
2023-01-12T10:03:30.525Z,24.85
2023-01-12T10:05:58.225Z,21.05
2023-01-12T10:08:31.871Z,21.55
2023-01-12T10:11:07.750Z,18.20
2023-01-12T10:13:49.172Z,15.90
2023-01-12T10:16:25.094Z,16.88
2023-01-12T10:18:54.674Z,16.80
2023-01-12T10:21:19.518Z,16.08
2023-01-12T10:23:44.369Z,15.57
2023-01-12T10:26:22.135Z,15.85
2023-01-12T10:28:47.849Z,14.93
2023-01-12T10:31:20.436Z,14.88
2023-01-12T10:34:05.180Z,14.75
2023-01-12T10:36:31.476Z,14.63
2023-01-12T10:38:59.612Z,13.40
2023-01-12T10:41:26.479Z,13.60
2023-01-12T10:44:14.761Z,13.60
2023-01-12T10:46:39.310Z,15.20
2023-01-12T10:49:22.752Z,13.75
2023-01-12T10:51:59.206Z,18.45
2023-01-12T10:54:26.984Z,15.13
2023-01-12T10:56:59.505Z,15.20
2023-01-12T10:59:29.435Z,21.42
2023-01-12T11:02:12.209Z,18.85
2023-01-12T11:04:42.292Z,17.50
2023-01-12T11:07:12.410Z,14.63
2023-01-12T11:09:37.258Z,15.30
2023-01-12T11:12:03.290Z,17.38
2023-01-12T11:14:31.240Z,15.88
2023-01-12T11:17:00.765Z,16.02
2023-01-12T11:19:30.923Z,17.60
2023-01-12T11:22:03.745Z,14.65
2023-01-12T11:24:39.416Z,14.35
2023-01-12T11:27:11.498Z,14.27
2023-01-12T11:29:46.444Z,16.38
2023-01-12T11:32:17.340Z,17.02
2023-01-12T11:34:55.875Z,13.80
2023-01-12T11:37:21.921Z,12.75
2023-01-12T11:39:47.430Z,15.15
2023-01-12T11:42:36.531Z,14.52
2023-01-12T11:45:08.189Z,12.90
2023-01-12T11:47:37.674Z,11.82
2023-01-12T11:50:07.839Z,15.90
2023-01-12T11:52:34.398Z,14.05
2023-01-12T11:54:59.285Z,11.88
2023-01-12T11:57:46.324Z,11.48
2023-01-12T12:00:22.701Z,14.65
2023-01-12T12:02:56.944Z,13.05
2023-01-12T12:05:30.670Z,13.15
2023-01-12T12:08:09.742Z,12.52
2023-01-12T12:10:43.202Z,12.97
2023-01-12T12:13:33.200Z,12.63
2023-01-12T12:18:40.421Z,12.15
2023-01-12T12:21:17.455Z,12.20
2023-01-12T12:23:52.988Z,12.18
2023-01-12T12:26:24.782Z,13.55
2023-01-12T12:29:08.849Z,14.10
2023-01-12T12:31:55.128Z,13.45
2023-01-12T12:35:05.781Z,12.60
2023-01-12T12:37:44.663Z,13.73
2023-01-12T12:40:30.957Z,12.95
2023-01-12T12:43:22.580Z,12.50
2023-01-12T12:45:54.310Z,12.48
2023-01-12T12:48:25.078Z,12.13
2023-01-12T12:51:00.549Z,12.05
2023-01-12T12:53:29.058Z,11.88
2023-01-12T12:55:58.498Z,12.80
2023-01-12T12:58:45.899Z,12.75
2023-01-12T13:01:55.544Z,11.02
2023-01-12T13:04:55.182Z,12.00
2023-01-12T13:07:22.328Z,11.80
2023-01-12T13:09:48.043Z,12.32
2023-01-12T13:12:35.783Z,12.68
2023-01-12T13:15:26.628Z,13.48
2023-01-12T13:17:54.375Z,13.13
2023-01-12T13:20:41.009Z,14.60
2023-01-12T13:23:21.311Z,13.60
2023-01-12T13:25:58.744Z,14.15
2023-01-12T13:28:24.921Z,15.30
2023-01-12T13:30:55.627Z,15.43
2023-01-12T13:33:26.184Z,16.85
2023-01-12T13:36:10.833Z,18.55
2023-01-12T13:38:49.365Z,17.35
2023-01-12T13:41:41.666Z,19.70
2023-01-12T13:44:10.754Z,18.70
2023-01-12T13:46:41.555Z,20.52
2023-01-12T13:49:26.657Z,18.63
2023-01-12T13:51:57.753Z,19.00
2023-01-12T13:54:22.309Z,19.23
2023-01-12T13:56:54.908Z,16.98
2023-01-12T13:59:25.303Z,17.75
2023-01-12T14:01:50.250Z,16.73
2023-01-12T14:04:34.358Z,18.52
2023-01-12T14:07:09.605Z,17.45
2023-01-12T14:09:43.494Z,18.40
2023-01-12T14:12:28.876Z,18.88
2023-01-12T14:15:25.914Z,18.25
2023-01-12T14:17:53.213Z,16.88
2023-01-12T14:20:19.633Z,18.38
2023-01-12T14:22:46.211Z,17.15
2023-01-12T14:25:16.160Z,17.10
2023-01-12T14:27:40.895Z,20.80
2023-01-12T14:30:13.814Z,16.67
2023-01-12T14:32:38.425Z,15.73
2023-01-12T14:35:02.877Z,15.77
2023-01-12T14:37:31.346Z,12.00
2023-01-12T14:39:56.753Z,14.40
2023-01-12T14:42:42.519Z,13.77
2023-01-12T14:45:41.636Z,14.10
2023-01-12T14:48:21.943Z,14.13
2023-01-12T14:51:01.853Z,13.00
2023-01-12T14:53:31.657Z,15.38
2023-01-12T14:55:56.170Z,14.55
2023-01-12T14:58:22.406Z,16.58
2023-01-12T15:00:48.328Z,24.45
2023-01-12T15:03:26.298Z,54.15
2023-01-12T15:05:55.300Z,28.65
2023-01-12T15:08:26.800Z,20.50
2023-01-12T15:10:58.795Z,19.58
2023-01-12T15:13:28.400Z,30.83
2023-01-12T15:16:13.393Z,25.30
2023-01-12T15:18:55.375Z,31.63
2023-01-12T15:21:37.486Z,34.42
2023-01-12T15:24:19.484Z,28.73
2023-01-12T15:26:47.889Z,28.88
2023-01-12T15:29:15.521Z,26.95
2023-01-12T15:31:41.573Z,21.60
2023-01-12T15:34:06.995Z,24.42
2023-01-12T15:36:31.531Z,24.52
2023-01-12T15:38:56.123Z,29.27
2023-01-12T15:41:45.151Z,22.17
2023-01-12T15:44:14.096Z,18.60
2023-01-12T15:46:38.502Z,20.15
2023-01-12T15:49:07.083Z,18.80
2023-01-12T15:51:31.564Z,19.40
2023-01-12T15:53:56.016Z,19.15
2023-01-12T15:56:20.428Z,17.08
2023-01-12T15:58:44.908Z,15.18
2023-01-12T16:01:11.093Z,23.58
2023-01-12T16:04:04.940Z,19.75
2023-01-12T16:06:24.713Z,15.88
2023-01-12T16:08:49.126Z,17.98
2023-01-12T16:11:23.961Z,17.65
2023-01-12T16:13:50.199Z,14.38
2023-01-12T16:16:19.668Z,15.02
2023-01-12T16:18:44.466Z,16.02
2023-01-12T16:21:10.403Z,14.73
2023-01-12T16:23:37.662Z,13.85
2023-01-12T16:26:03.014Z,15.35
2023-01-12T16:28:28.287Z,15.55
2023-01-12T16:30:52.960Z,15.32
2023-01-12T16:33:17.911Z,14.50
2023-01-12T16:35:44.495Z,13.82
2023-01-12T16:38:09.290Z,13.18
2023-01-12T16:40:35.377Z,14.30
2023-01-12T16:43:00.638Z,14.05
2023-01-12T16:45:25.323Z,15.85
2023-01-12T16:47:50.200Z,14.55
2023-01-12T16:50:15.598Z,13.10
2023-01-12T16:52:41.622Z,13.10
2023-01-12T16:55:06.585Z,17.00
2023-01-12T16:57:33.656Z,19.77
2023-01-12T16:59:58.048Z,22.08
2023-01-12T17:02:22.797Z,16.50
2023-01-12T17:04:51.983Z,13.68
2023-01-12T17:07:16.947Z,14.55
2023-01-12T17:09:45.196Z,14.50
2023-01-12T17:12:11.760Z,13.15
2023-01-12T17:14:37.800Z,13.68
2023-01-12T17:17:05.749Z,16.33
2023-01-12T17:19:34.107Z,14.40
2023-01-12T17:22:01.572Z,19.10
2023-01-12T17:24:27.600Z,17.90
2023-01-12T17:26:54.022Z,14.20
2023-01-12T17:29:18.617Z,14.38
2023-01-12T17:31:45.191Z,14.73
2023-01-12T17:34:14.255Z,14.45
2023-01-12T17:36:38.891Z,13.55
2023-01-12T17:39:04.138Z,13.02
2023-01-12T17:41:46.521Z,13.43
2023-01-12T17:44:11.592Z,14.05
2023-01-12T17:46:37.017Z,16.10
2023-01-12T17:49:06.062Z,18.33
2023-01-12T17:51:30.698Z,14.57
2023-01-12T17:53:55.654Z,16.23
2023-01-12T17:56:20.271Z,15.27
2023-01-12T17:58:44.826Z,15.10
2023-01-12T18:01:13.173Z,17.25
2023-01-12T18:03:37.898Z,15.80
2023-01-12T18:06:09.082Z,20.02
2023-01-12T18:08:36.911Z,15.75
2023-01-12T18:11:02.772Z,14.15
2023-01-12T18:13:27.403Z,17.85
2023-01-12T18:15:52.957Z,18.65
2023-01-12T18:18:17.619Z,16.67
2023-01-12T18:20:42.266Z,16.08
2023-01-12T18:23:08.548Z,49.22
2023-01-12T18:25:36.682Z,18.00
2023-01-12T18:28:01.285Z,31.13
2023-01-12T18:30:27.383Z,27.58
2023-01-12T18:32:51.961Z,26.90
2023-01-12T18:35:16.622Z,19.65
2023-01-12T18:37:41.462Z,17.98
2023-01-12T18:40:10.447Z,22.45
2023-01-12T18:42:53.451Z,19.23
2023-01-12T18:45:19.428Z,20.27
2023-01-12T18:48:13.089Z,18.85
2023-01-12T18:50:55.069Z,15.82
2023-01-12T18:53:30.093Z,19.77
2023-01-12T18:55:58.320Z,24.30
2023-01-12T18:58:24.324Z,20.42
2023-01-12T19:00:49.052Z,19.50
2023-01-12T19:03:13.803Z,18.95
2023-01-12T19:05:49.255Z,16.50
2023-01-12T19:08:42.317Z,20.35
2023-01-12T19:11:12.791Z,18.98
2023-01-12T19:13:55.318Z,18.85
2023-01-12T19:16:37.863Z,16.52
2023-01-12T19:19:02.279Z,19.40
2023-01-12T19:21:44.132Z,31.05
2023-01-12T19:24:27.179Z,21.23
2023-01-12T19:27:12.984Z,19.23
2023-01-12T19:29:39.253Z,20.38
2023-01-12T19:32:05.476Z,20.52
2023-01-12T19:34:30.205Z,18.10
2023-01-12T19:36:55.600Z,25.55
2023-01-12T19:39:33.206Z,23.45
2023-01-12T19:42:16.936Z,21.15
2023-01-12T19:44:42.374Z,22.20
2023-01-12T19:47:09.641Z,24.30
2023-01-12T19:49:34.617Z,23.00
2023-01-12T19:51:59.591Z,22.77
2023-01-12T19:54:25.028Z,21.67
2023-01-12T19:56:49.447Z,26.85
2023-01-12T19:59:15.572Z,25.48
2023-01-12T20:01:40.113Z,21.35
2023-01-12T20:04:04.815Z,21.92
2023-01-12T20:06:29.387Z,26.23
2023-01-12T20:08:53.725Z,24.65
2023-01-12T20:11:18.273Z,20.85
2023-01-12T20:13:42.778Z,21.33
2023-01-12T20:16:10.474Z,19.77
2023-01-12T20:18:35.223Z,20.58
2023-01-12T20:21:01.044Z,24.13
2023-01-12T20:23:25.460Z,23.27
2023-01-12T20:25:50.212Z,28.40
2023-01-12T20:28:15.695Z,25.35
2023-01-12T20:30:42.003Z,24.52
2023-01-12T20:33:08.025Z,28.20
2023-01-12T20:35:32.883Z,28.27
2023-01-12T20:37:57.434Z,27.23
2023-01-12T20:40:22.258Z,24.48
2023-01-12T20:42:47.012Z,20.38
2023-01-12T20:45:13.815Z,21.58
2023-01-12T20:47:38.386Z,21.20
2023-01-12T20:50:07.950Z,21.75
2023-01-12T20:52:33.138Z,17.38
2023-01-12T20:54:57.810Z,18.20
2023-01-12T20:57:22.684Z,20.67
2023-01-12T20:59:48.466Z,19.77
2023-01-12T21:02:18.574Z,20.42
2023-01-12T21:04:46.162Z,23.50
2023-01-12T21:07:12.916Z,18.85
2023-01-12T21:09:37.330Z,19.80
2023-01-12T21:12:01.763Z,22.63
2023-01-12T21:14:28.388Z,20.48
2023-01-12T21:16:53.187Z,17.95
2023-01-12T21:19:18.253Z,17.90
2023-01-12T21:21:42.687Z,18.13
2023-01-12T21:24:09.231Z,18.15
2023-01-12T21:26:33.798Z,19.25
2023-01-12T21:28:59.164Z,20.88
2023-01-12T21:31:23.641Z,18.00
2023-01-12T21:33:47.981Z,19.23
2023-01-12T21:36:14.204Z,16.67
2023-01-12T21:38:38.690Z,27.13
2023-01-12T21:41:06.161Z,21.13
2023-01-12T21:43:31.164Z,19.70
2023-01-12T21:45:57.461Z,17.20
2023-01-12T21:48:23.575Z,17.17
2023-01-12T21:50:48.348Z,16.88
2023-01-12T21:53:16.126Z,21.05
2023-01-12T21:55:40.813Z,18.63
2023-01-12T21:58:07.142Z,18.88
2023-01-12T22:00:33.107Z,17.10
2023-01-12T22:02:58.197Z,19.92
2023-01-12T22:05:23.045Z,18.73
2023-01-12T22:07:48.386Z,17.50
2023-01-12T22:10:22.180Z,20.50
2023-01-12T22:12:46.723Z,18.85
2023-01-12T22:15:13.472Z,20.17
2023-01-12T22:17:37.874Z,18.55
2023-01-12T22:20:02.190Z,22.08
2023-01-12T22:22:28.672Z,19.20
2023-01-12T22:24:53.011Z,20.50
2023-01-12T22:27:17.397Z,19.58
2023-01-12T22:29:41.732Z,17.25
2023-01-12T22:32:08.817Z,18.20
2023-01-12T22:34:33.173Z,19.20
2023-01-12T22:36:57.534Z,17.75
2023-01-12T22:39:21.962Z,19.27
2023-01-12T22:41:47.441Z,19.92
2023-01-12T22:44:11.942Z,18.45
2023-01-12T22:46:37.067Z,21.45
2023-01-12T22:49:02.945Z,19.70
2023-01-12T22:51:29.515Z,20.95
2023-01-12T22:53:54.431Z,21.75
2023-01-12T22:56:19.192Z,21.27
2023-01-12T22:58:47.780Z,20.70
2023-01-12T23:01:12.233Z,19.83
2023-01-12T23:03:37.585Z,22.05
2023-01-12T23:06:04.152Z,21.30
2023-01-12T23:08:28.804Z,21.92
2023-01-12T23:10:53.761Z,20.65
2023-01-12T23:13:20.455Z,21.60
2023-01-12T23:15:47.731Z,20.45
2023-01-12T23:18:13.042Z,22.38
2023-01-12T23:20:38.306Z,23.02
2023-01-12T23:23:04.527Z,21.17
2023-01-12T23:25:28.883Z,20.25
2023-01-12T23:27:53.859Z,19.80
2023-01-12T23:30:18.729Z,20.67
2023-01-12T23:32:43.361Z,19.13
2023-01-12T23:35:08.294Z,22.35
2023-01-12T23:37:32.702Z,22.08
2023-01-12T23:39:58.467Z,21.55
2023-01-12T23:42:22.876Z,21.88
2023-01-12T23:44:48.114Z,20.80
2023-01-12T23:47:15.667Z,21.38
2023-01-12T23:49:40.003Z,21.48
2023-01-12T23:52:04.444Z,21.88
2023-01-12T23:54:29.147Z,23.17
2023-01-12T23:56:54.902Z,20.55
2023-01-12T23:59:19.296Z,22.13
